createdAt,value
2023-03-01T00:01:08.602Z,-2.30
2023-03-01T00:03:35.939Z,-2.30
2023-03-01T00:06:03.284Z,-3.00
2023-03-01T00:08:31.156Z,-2.30
2023-03-01T00:11:13.309Z,-2.30
2023-03-01T00:13:40.680Z,-2.30
2023-03-01T00:16:08.522Z,-2.30
2023-03-01T00:18:35.467Z,-2.30
2023-03-01T00:21:02.633Z,-2.40
2023-03-01T00:23:29.753Z,-2.40
2023-03-01T00:25:56.679Z,-2.50
2023-03-01T00:28:23.789Z,-2.50
2023-03-01T00:30:50.836Z,-1.70
2023-03-01T00:33:18.614Z,-2.50
2023-03-01T00:35:45.825Z,-2.50
2023-03-01T00:38:12.800Z,-2.50
2023-03-01T00:40:39.779Z,-2.60
2023-03-01T00:43:07.264Z,-1.80
2023-03-01T00:45:34.300Z,-2.60
2023-03-01T00:48:01.217Z,-1.80
2023-03-01T00:50:28.593Z,-2.50
2023-03-01T00:52:56.281Z,-2.60
2023-03-01T00:55:23.525Z,-2.60
2023-03-01T00:57:50.496Z,-2.60
2023-03-01T01:00:18.079Z,-1.40
2023-03-01T01:02:45.226Z,-2.70
2023-03-01T01:05:12.383Z,-2.80
2023-03-01T01:07:39.513Z,-1.90
2023-03-01T01:10:06.776Z,-2.70
2023-03-01T01:12:33.889Z,-2.80
2023-03-01T01:15:00.857Z,-2.80
2023-03-01T01:17:27.801Z,-2.60
2023-03-01T01:19:54.846Z,-2.80
2023-03-01T01:22:21.768Z,-1.00
2023-03-01T01:24:48.841Z,-2.90
2023-03-01T01:27:15.756Z,-2.10
2023-03-01T01:29:43.189Z,-2.90
2023-03-01T01:32:10.283Z,-2.20
2023-03-01T01:34:37.242Z,-2.90
2023-03-01T01:37:04.334Z,-2.20
2023-03-01T01:39:31.262Z,-3.00
2023-03-01T01:41:58.179Z,-3.00
2023-03-01T01:44:26.990Z,-3.00
2023-03-01T01:46:58.403Z,-2.90
2023-03-01T01:49:27.997Z,-3.10
2023-03-01T01:52:04.836Z,-2.40
2023-03-01T01:54:52.029Z,-3.10
2023-03-01T01:57:21.013Z,-3.20
2023-03-01T01:59:51.945Z,-3.20
2023-03-01T02:02:19.148Z,-3.20
2023-03-01T02:04:47.507Z,-3.20
2023-03-01T02:07:16.833Z,-3.20
2023-03-01T02:09:46.639Z,-2.80
2023-03-01T02:12:14.088Z,-3.20
2023-03-01T02:14:40.983Z,-2.20
2023-03-01T02:17:07.994Z,-3.30
2023-03-01T02:19:45.035Z,-3.10
2023-03-01T02:22:12.022Z,-3.30
2023-03-01T02:24:57.608Z,-2.60
2023-03-01T02:27:27.188Z,-3.40
2023-03-01T02:29:55.717Z,-3.30
2023-03-01T02:32:26.334Z,-3.40
2023-03-01T02:34:55.041Z,-2.10
2023-03-01T02:37:25.834Z,-3.40
2023-03-01T02:39:59.103Z,-4.40
2023-03-01T02:42:40.180Z,-3.00
2023-03-01T02:45:07.277Z,-3.40
2023-03-01T02:47:34.177Z,-3.40
2023-03-01T02:50:01.186Z,-3.40
2023-03-01T02:52:31.348Z,-3.20
2023-03-01T02:55:05.356Z,-3.50
2023-03-01T02:57:33.332Z,-3.50
2023-03-01T03:00:02.777Z,-3.60
2023-03-01T03:02:37.384Z,-4.30
2023-03-01T03:05:15.865Z,-3.00
2023-03-01T03:07:43.819Z,-3.80
2023-03-01T03:10:12.485Z,-3.70
2023-03-01T03:12:40.215Z,-3.70
2023-03-01T03:15:09.925Z,-3.40
2023-03-01T03:17:37.949Z,-3.70
2023-03-01T03:20:13.068Z,-2.00
2023-03-01T03:22:40.875Z,-3.80
2023-03-01T03:25:11.483Z,-2.40
2023-03-01T03:27:42.297Z,-4.70
2023-03-01T03:30:10.950Z,-3.70
2023-03-01T03:32:38.038Z,-3.70
2023-03-01T03:35:10.480Z,-3.80
2023-03-01T03:38:00.001Z,-4.60
2023-03-01T03:40:27.808Z,-3.80
2023-03-01T03:42:55.101Z,-3.80
2023-03-01T03:45:22.225Z,-3.90
2023-03-01T03:47:49.370Z,-3.20
2023-03-01T03:50:17.582Z,-3.80
2023-03-01T03:52:44.645Z,-3.90
2023-03-01T03:55:12.821Z,-3.90
2023-03-01T03:57:40.313Z,-3.90
2023-03-01T04:00:13.776Z,-3.90
2023-03-01T04:02:42.375Z,-4.00
2023-03-01T04:05:10.539Z,-4.00
2023-03-01T04:07:38.887Z,-4.00
2023-03-01T04:10:07.869Z,-4.10
2023-03-01T04:12:35.878Z,-4.10
2023-03-01T04:15:16.060Z,-4.00
2023-03-01T04:17:43.990Z,-4.00
2023-03-01T04:20:12.588Z,-4.10
2023-03-01T04:22:40.176Z,-4.10
2023-03-01T04:25:07.292Z,-4.10
2023-03-01T04:27:34.794Z,-4.10
2023-03-01T04:30:02.137Z,-4.10
2023-03-01T04:32:29.138Z,-4.10
2023-03-01T04:34:56.081Z,-4.10
2023-03-01T04:37:23.054Z,-4.10
2023-03-01T04:39:49.998Z,-4.10
2023-03-01T04:42:17.841Z,-2.80
2023-03-01T04:44:45.443Z,-4.20
2023-03-01T04:47:12.502Z,-4.20
2023-03-01T04:49:39.425Z,-4.30
2023-03-01T04:52:06.784Z,-2.90
2023-03-01T04:54:34.152Z,-4.30
2023-03-01T04:57:01.839Z,-4.80
2023-03-01T04:59:28.734Z,-4.20
2023-03-01T05:01:56.882Z,-4.20
2023-03-01T05:04:24.803Z,-4.30
2023-03-01T05:06:51.948Z,-2.50
2023-03-01T05:09:18.871Z,-4.40
2023-03-01T05:11:45.831Z,-3.30
2023-03-01T05:14:12.740Z,-4.40
2023-03-01T05:16:39.707Z,-2.70
2023-03-01T05:19:12.808Z,-4.30
2023-03-01T05:21:59.889Z,-4.30
2023-03-01T05:24:27.920Z,-4.30
2023-03-01T05:26:54.840Z,-4.40
2023-03-01T05:29:28.464Z,-4.00
2023-03-01T05:31:56.494Z,-4.50
2023-03-01T05:34:26.808Z,-3.70
2023-03-01T05:36:54.233Z,-4.40
2023-03-01T05:39:25.177Z,-3.20
2023-03-01T05:41:56.121Z,-4.40
2023-03-01T05:44:23.451Z,-4.40
2023-03-01T05:46:50.583Z,-4.40
2023-03-01T05:49:17.611Z,-3.00
2023-03-01T05:51:48.232Z,-4.40
2023-03-01T05:54:15.474Z,-4.40
2023-03-01T05:56:42.443Z,-4.40
2023-03-01T05:59:09.411Z,-4.40
2023-03-01T06:01:36.922Z,-4.40
2023-03-01T06:04:04.687Z,-4.40
2023-03-01T06:06:35.088Z,-4.40
2023-03-01T06:09:02.141Z,-4.30
2023-03-01T06:11:29.294Z,-4.30
2023-03-01T06:13:56.312Z,-4.40
2023-03-01T06:16:23.226Z,-4.40
2023-03-01T06:18:50.233Z,-4.30
2023-03-01T06:21:17.193Z,-4.00
2023-03-01T06:23:44.123Z,-4.30
2023-03-01T06:26:11.077Z,-2.90
2023-03-01T06:28:38.310Z,-4.20
2023-03-01T06:31:05.323Z,-2.70
2023-03-01T06:33:32.332Z,-4.00
2023-03-01T06:35:59.355Z,-4.00
2023-03-01T06:38:26.412Z,-4.00
2023-03-01T06:40:55.269Z,-3.90
2023-03-01T06:43:22.448Z,-3.90
2023-03-01T06:45:49.469Z,-3.80
2023-03-01T06:48:16.443Z,-3.20
2023-03-01T06:50:43.487Z,-2.70
2023-03-01T06:53:10.467Z,-3.60
2023-03-01T06:55:37.499Z,-2.30
2023-03-01T06:58:04.529Z,-3.50
2023-03-01T07:00:32.008Z,-3.50
2023-03-01T07:03:03.115Z,-3.40
2023-03-01T07:05:30.675Z,-3.30
2023-03-01T07:07:57.565Z,-3.30
2023-03-01T07:10:24.754Z,-3.20
2023-03-01T07:12:51.794Z,-2.20
2023-03-01T07:15:18.712Z,-3.00
2023-03-01T07:17:45.841Z,-1.60
2023-03-01T07:20:12.954Z,-3.00
2023-03-01T07:22:43.479Z,-2.90
2023-03-01T07:25:11.262Z,-2.80
2023-03-01T07:27:38.151Z,-1.30
2023-03-01T07:30:05.353Z,-2.70
2023-03-01T07:32:32.308Z,-2.60
2023-03-01T07:34:59.382Z,-2.50
2023-03-01T07:37:26.276Z,-2.40
2023-03-01T07:39:53.190Z,-2.40
2023-03-01T07:42:20.079Z,-2.70
2023-03-01T07:44:47.052Z,-2.30
2023-03-01T07:47:13.948Z,-1.20
2023-03-01T07:49:40.902Z,-2.20
2023-03-01T07:52:07.856Z,-2.10
2023-03-01T07:54:34.817Z,-2.10
2023-03-01T07:57:01.729Z,-0.70
2023-03-01T07:59:30.267Z,-2.00
2023-03-01T08:01:57.952Z,-1.90
2023-03-01T08:04:26.101Z,-1.80
2023-03-01T08:06:53.128Z,-1.70
2023-03-01T08:09:20.106Z,-1.00
2023-03-01T08:11:47.150Z,-1.60
2023-03-01T08:14:14.095Z,0.20
2023-03-01T08:16:41.161Z,-1.40
2023-03-01T08:19:09.346Z,-0.90
2023-03-01T08:21:36.294Z,-1.30
2023-03-01T08:24:10.592Z,-1.20
2023-03-01T08:26:38.135Z,-1.10
2023-03-01T08:29:05.117Z,-1.00
2023-03-01T08:31:32.048Z,-1.00
2023-03-01T08:34:00.727Z,-0.90
2023-03-01T08:36:31.900Z,-1.30
2023-03-01T08:38:59.371Z,-0.80
2023-03-01T08:41:26.352Z,-0.60
2023-03-01T08:43:53.963Z,-0.60
2023-03-01T08:46:20.957Z,-0.50
2023-03-01T08:48:47.866Z,-0.40
2023-03-01T08:51:17.963Z,-0.30
2023-03-01T08:53:44.935Z,-0.30
2023-03-01T08:56:12.110Z,-0.20
2023-03-01T08:58:39.121Z,-0.10
2023-03-01T09:01:10.061Z,0.00
2023-03-01T09:03:37.097Z,0.10
2023-03-01T09:06:04.952Z,0.20
2023-03-01T09:08:32.379Z,0.30
2023-03-01T09:10:59.340Z,0.40
2023-03-01T09:13:29.133Z,0.50
2023-03-01T09:15:56.126Z,0.60
2023-03-01T09:18:23.132Z,0.70
2023-03-01T09:20:50.242Z,0.40
2023-03-01T09:23:17.255Z,0.70
2023-03-01T09:25:44.121Z,0.90
2023-03-01T09:28:24.140Z,0.90
2023-03-01T09:30:58.904Z,1.00
2023-03-01T09:33:25.819Z,1.10
2023-03-01T09:35:57.344Z,1.20
2023-03-01T09:38:25.943Z,1.30
2023-03-01T09:40:54.147Z,1.30
2023-03-01T09:43:39.808Z,1.30
2023-03-01T09:46:09.146Z,1.30
2023-03-01T09:48:48.380Z,1.40
2023-03-01T09:51:31.633Z,1.40
2023-03-01T09:53:59.754Z,1.40
2023-03-01T09:56:39.833Z,1.50
2023-03-01T09:59:12.959Z,1.60
2023-03-01T10:01:45.202Z,1.60
2023-03-01T10:04:22.171Z,1.80
2023-03-01T10:07:09.494Z,1.80
2023-03-01T10:09:38.076Z,1.80
2023-03-01T10:12:09.326Z,1.80
2023-03-01T10:14:37.919Z,1.80
2023-03-01T10:17:09.814Z,1.90
2023-03-01T10:19:41.293Z,2.00
2023-03-01T10:22:14.344Z,2.00
2023-03-01T10:24:41.340Z,1.90
2023-03-01T10:27:18.827Z,2.10
2023-03-01T10:30:10.488Z,2.10
2023-03-01T10:32:37.657Z,2.20
2023-03-01T10:35:20.996Z,2.30
2023-03-01T10:38:00.342Z,2.30
2023-03-01T10:40:28.754Z,2.30
2023-03-01T10:42:58.550Z,2.40
2023-03-01T10:45:28.518Z,2.50
2023-03-01T10:48:17.355Z,2.60
2023-03-01T10:50:46.221Z,2.10
2023-03-01T10:53:22.152Z,2.70
2023-03-01T10:55:57.473Z,2.70
2023-03-01T10:58:24.444Z,2.70
2023-03-01T11:00:55.606Z,2.80
2023-03-01T11:03:48.640Z,2.90
2023-03-01T11:06:15.525Z,3.00
2023-03-01T11:08:43.667Z,2.90
2023-03-01T11:11:10.579Z,3.10
2023-03-01T11:13:51.336Z,3.20
2023-03-01T11:16:23.919Z,3.30
2023-03-01T11:18:58.710Z,3.30
2023-03-01T11:21:27.305Z,3.20
2023-03-01T11:23:54.295Z,3.10
2023-03-01T11:26:22.321Z,3.20
2023-03-01T11:28:51.762Z,3.30
2023-03-01T11:31:20.174Z,3.30
2023-03-01T11:33:57.780Z,3.30
2023-03-01T11:36:33.867Z,3.40
2023-03-01T11:39:18.699Z,3.40
2023-03-01T11:41:49.739Z,3.50
2023-03-01T11:44:26.536Z,3.40
2023-03-01T11:46:59.796Z,3.50
2023-03-01T11:49:26.790Z,3.60
2023-03-01T11:52:04.937Z,3.70
2023-03-01T11:54:31.943Z,3.80
2023-03-01T11:57:02.966Z,3.80
2023-03-01T11:59:33.166Z,3.90
2023-03-01T12:02:06.379Z,3.90
2023-03-01T12:04:52.201Z,4.00
2023-03-01T12:07:24.155Z,4.00
2023-03-01T12:09:51.106Z,4.20
2023-03-01T12:12:38.854Z,4.20
2023-03-01T12:15:08.803Z,4.20
2023-03-01T12:17:56.809Z,3.60
2023-03-01T12:20:23.921Z,4.10
2023-03-01T12:22:57.175Z,4.20
2023-03-01T12:25:24.174Z,4.20
2023-03-01T12:28:00.279Z,4.30
2023-03-01T12:30:27.140Z,4.30
2023-03-01T12:32:54.189Z,4.30
2023-03-01T12:35:27.506Z,4.40
2023-03-01T12:37:57.373Z,4.40
2023-03-01T12:40:39.504Z,4.30
2023-03-01T12:43:33.141Z,4.30
2023-03-01T12:46:08.796Z,4.30
2023-03-01T12:48:56.020Z,4.30
2023-03-01T12:51:27.574Z,4.40
2023-03-01T12:53:55.880Z,4.30
2023-03-01T12:56:24.177Z,4.40
2023-03-01T12:59:09.224Z,4.40
2023-03-01T13:01:56.586Z,4.40
2023-03-01T13:04:37.711Z,4.50
2023-03-01T13:07:40.215Z,4.50
2023-03-01T13:10:07.139Z,4.50
2023-03-01T13:12:45.250Z,4.70
2023-03-01T13:15:24.500Z,4.60
2023-03-01T13:17:57.584Z,4.60
2023-03-01T13:20:28.685Z,4.60
2023-03-01T13:23:03.276Z,4.60
2023-03-01T13:25:37.706Z,4.10
2023-03-01T13:28:27.357Z,4.70
2023-03-01T13:30:54.341Z,4.70
2023-03-01T13:33:27.178Z,4.70
2023-03-01T13:35:55.271Z,4.80
2023-03-01T13:38:42.222Z,4.80
2023-03-01T13:41:09.413Z,4.70
2023-03-01T13:43:37.502Z,4.70
2023-03-01T13:46:10.204Z,4.50
2023-03-01T13:48:37.187Z,4.80
2023-03-01T13:51:05.788Z,4.80
2023-03-01T13:53:35.225Z,4.80
2023-03-01T13:56:04.225Z,4.80
2023-03-01T13:58:32.728Z,4.70
2023-03-01T14:01:01.651Z,4.70
2023-03-01T14:03:29.664Z,4.70
2023-03-01T14:06:11.535Z,4.80
2023-03-01T14:08:43.428Z,4.70
2023-03-01T14:11:16.552Z,4.70
2023-03-01T14:13:43.811Z,4.30
2023-03-01T14:16:19.285Z,4.70
2023-03-01T14:18:56.570Z,4.70
2023-03-01T14:21:23.880Z,4.70
2023-03-01T14:23:50.822Z,4.70
2023-03-01T14:26:21.228Z,4.60
2023-03-01T14:28:48.938Z,4.60
2023-03-01T14:31:27.967Z,4.50
2023-03-01T14:33:58.139Z,4.20
2023-03-01T14:36:29.477Z,4.40
2023-03-01T14:38:56.741Z,4.40
2023-03-01T14:41:25.068Z,4.40
2023-03-01T14:44:12.287Z,4.30
2023-03-01T14:46:40.599Z,4.30
2023-03-01T14:49:13.691Z,4.40
2023-03-01T14:51:42.355Z,4.30
2023-03-01T14:54:32.611Z,4.10
2023-03-01T14:57:01.004Z,4.00
2023-03-01T14:59:28.164Z,4.00
2023-03-01T15:01:56.647Z,3.90
2023-03-01T15:04:24.422Z,3.80
2023-03-01T15:06:52.716Z,3.70
2023-03-01T15:09:20.182Z,3.60
2023-03-01T15:11:47.135Z,3.70
2023-03-01T15:15:02.668Z,3.60
2023-03-01T15:17:37.797Z,3.50
2023-03-01T15:20:07.459Z,3.40
2023-03-01T15:22:34.486Z,3.40
2023-03-01T15:25:01.621Z,3.30
2023-03-01T15:27:28.708Z,3.20
2023-03-01T15:29:55.659Z,3.30
2023-03-01T15:32:25.726Z,3.30
2023-03-01T15:34:52.659Z,3.20
2023-03-01T15:37:34.954Z,3.20
2023-03-01T15:40:02.072Z,3.10
2023-03-01T15:42:28.979Z,3.00
2023-03-01T15:45:15.941Z,2.90
2023-03-01T15:47:49.323Z,2.90
2023-03-01T15:50:24.797Z,2.40
2023-03-01T15:52:52.220Z,2.80
2023-03-01T15:55:30.750Z,2.70
2023-03-01T15:58:02.055Z,2.30
2023-03-01T16:00:29.869Z,2.60
2023-03-01T16:02:56.946Z,2.60
2023-03-01T16:05:28.946Z,2.50
2023-03-01T16:07:56.015Z,2.40
2023-03-01T16:10:23.274Z,2.40
2023-03-01T16:12:52.692Z,2.30
2023-03-01T16:15:29.485Z,2.30
2023-03-01T16:17:59.925Z,2.20
2023-03-01T16:20:30.415Z,2.10
2023-03-01T16:22:59.548Z,2.10
2023-03-01T16:25:26.967Z,2.00
2023-03-01T16:27:53.881Z,1.90
2023-03-01T16:30:21.917Z,1.80
2023-03-01T16:32:49.707Z,1.80
2023-03-01T16:35:18.254Z,1.70
2023-03-01T16:37:45.533Z,1.60
2023-03-01T16:40:32.842Z,1.50
2023-03-01T16:43:02.087Z,1.50
2023-03-01T16:45:33.719Z,1.40
2023-03-01T16:48:00.723Z,1.40
2023-03-01T16:50:27.617Z,1.40
2023-03-01T16:52:54.590Z,1.30
2023-03-01T16:55:23.120Z,1.20
2023-03-01T16:57:50.324Z,1.20
2023-03-01T17:00:18.909Z,1.20
2023-03-01T17:02:45.967Z,1.20
2023-03-01T17:05:13.309Z,1.10
2023-03-01T17:07:40.528Z,1.00
2023-03-01T17:10:09.154Z,1.00
2023-03-01T17:12:36.621Z,1.00
2023-03-01T17:15:04.965Z,0.90
2023-03-01T17:17:31.908Z,0.90
2023-03-01T17:19:58.888Z,0.90
2023-03-01T17:22:25.873Z,0.80
2023-03-01T17:24:52.960Z,0.80
2023-03-01T17:27:20.069Z,0.80
2023-03-01T17:29:47.336Z,0.70
2023-03-01T17:32:19.842Z,0.70
2023-03-01T17:34:46.874Z,0.60
2023-03-01T17:37:13.810Z,0.50
2023-03-01T17:39:40.830Z,0.50
2023-03-01T17:42:07.776Z,0.40
2023-03-01T17:44:34.908Z,0.40
2023-03-01T17:47:04.966Z,0.30
2023-03-01T17:49:32.409Z,0.30
2023-03-01T17:51:59.395Z,0.20
2023-03-01T17:54:26.326Z,0.20
2023-03-01T17:56:53.362Z,0.20
2023-03-01T17:59:20.291Z,0.20
2023-03-01T18:01:47.390Z,0.20
2023-03-01T18:04:14.480Z,0.20
2023-03-01T18:06:41.760Z,0.10
2023-03-01T18:09:09.232Z,0.00
2023-03-01T18:11:36.568Z,0.00
2023-03-01T18:14:04.189Z,0.00
2023-03-01T18:16:32.257Z,0.00
2023-03-01T18:19:00.137Z,-0.10
2023-03-01T18:21:27.833Z,-0.10
2023-03-01T18:23:54.985Z,-0.40
2023-03-01T18:26:22.700Z,-0.10
2023-03-01T18:28:51.673Z,-0.20
2023-03-01T18:31:21.817Z,-0.20
2023-03-01T18:33:49.296Z,-0.20
2023-03-01T18:36:18.976Z,-0.20
2023-03-01T18:38:46.149Z,-0.30
2023-03-01T18:41:13.079Z,0.00
2023-03-01T18:43:40.108Z,-0.30
2023-03-01T18:46:07.242Z,-0.30
2023-03-01T18:48:36.169Z,-0.30
2023-03-01T18:51:10.624Z,-0.40
2023-03-01T18:53:37.709Z,-0.40
2023-03-01T18:56:04.871Z,-0.40
2023-03-01T18:58:31.854Z,-0.50
2023-03-01T19:01:00.166Z,-0.50
2023-03-01T19:03:29.015Z,-0.50
2023-03-01T19:05:57.054Z,-0.50
2023-03-01T19:08:24.028Z,-0.50
2023-03-01T19:10:58.192Z,-0.60
2023-03-01T19:13:25.637Z,-0.60
2023-03-01T19:15:53.184Z,-0.60
2023-03-01T19:18:20.334Z,-0.60
2023-03-01T19:20:50.654Z,-0.60
2023-03-01T19:23:17.665Z,-0.60
2023-03-01T19:25:44.674Z,-0.70
2023-03-01T19:28:11.704Z,-0.70
2023-03-01T19:30:38.613Z,-0.70
2023-03-01T19:33:05.661Z,-0.70
2023-03-01T19:35:34.482Z,-0.30
2023-03-01T19:38:01.420Z,-0.80
2023-03-01T19:40:28.508Z,-0.70
2023-03-01T19:42:55.436Z,-0.80
2023-03-01T19:45:31.862Z,-0.80
2023-03-01T19:48:00.118Z,-0.80
2023-03-01T19:50:27.062Z,-0.80
2023-03-01T19:52:53.961Z,-0.80
2023-03-01T19:55:20.901Z,-0.70
2023-03-01T19:57:47.865Z,-0.90
2023-03-01T20:00:15.144Z,-0.90
2023-03-01T20:02:42.184Z,-0.90
2023-03-01T20:05:09.551Z,-0.20
2023-03-01T20:07:36.448Z,-1.00
2023-03-01T20:10:03.572Z,-1.00
2023-03-01T20:12:30.548Z,-1.00
2023-03-01T20:14:57.509Z,-1.10
2023-03-01T20:17:24.390Z,-1.00
2023-03-01T20:19:51.323Z,-1.10
2023-03-01T20:22:18.400Z,-1.00
2023-03-01T20:24:45.367Z,-1.10
2023-03-01T20:27:12.290Z,-1.10
2023-03-01T20:29:39.534Z,-1.10
2023-03-01T20:32:06.523Z,-1.10
2023-03-01T20:34:33.440Z,-1.20
2023-03-01T20:37:00.438Z,-1.20
2023-03-01T20:39:27.344Z,-1.20
2023-03-01T20:41:54.274Z,-0.80
2023-03-01T20:44:21.192Z,-1.30
2023-03-01T20:46:48.318Z,-1.30
2023-03-01T20:49:15.245Z,-1.30
2023-03-01T20:51:42.700Z,-1.30
2023-03-01T20:54:10.690Z,-1.30
2023-03-01T20:56:37.936Z,-0.80
2023-03-01T20:59:05.876Z,-1.30
2023-03-01T21:01:32.982Z,-1.30
2023-03-01T21:03:59.976Z,-1.40
2023-03-01T21:06:26.979Z,-0.80
2023-03-01T21:08:57.301Z,-1.40
2023-03-01T21:11:25.450Z,-1.50
2023-03-01T21:13:52.992Z,-1.50
2023-03-01T21:16:20.175Z,-1.60
2023-03-01T21:18:47.436Z,-0.70
2023-03-01T21:21:15.680Z,-1.50
2023-03-01T21:23:43.250Z,-1.60
2023-03-01T21:26:11.686Z,-1.70
2023-03-01T21:28:39.014Z,-1.60
2023-03-01T21:31:10.444Z,-1.60
2023-03-01T21:33:38.266Z,-1.60
2023-03-01T21:36:06.942Z,-1.70
2023-03-01T21:38:37.294Z,-1.70
2023-03-01T21:41:08.592Z,-1.50
2023-03-01T21:43:36.254Z,-1.70
2023-03-01T21:46:03.964Z,-1.70
2023-03-01T21:48:31.404Z,-1.80
2023-03-01T21:50:58.639Z,-1.30
2023-03-01T21:53:25.805Z,-1.80
2023-03-01T21:55:52.876Z,-0.70
2023-03-01T21:58:20.107Z,-1.90
2023-03-01T22:00:47.484Z,-1.90
2023-03-01T22:03:14.770Z,-1.90
2023-03-01T22:05:41.900Z,-1.90
2023-03-01T22:08:09.001Z,-1.90
2023-03-01T22:10:39.413Z,-2.00
2023-03-01T22:13:06.467Z,-1.80
2023-03-01T22:15:33.360Z,-2.00
2023-03-01T22:18:00.252Z,-2.00
2023-03-01T22:20:27.382Z,-2.00
2023-03-01T22:22:54.288Z,-2.10
2023-03-01T22:25:21.201Z,-2.10
2023-03-01T22:27:48.200Z,-2.10
2023-03-01T22:30:15.281Z,-2.10
2023-03-01T22:32:43.065Z,-2.10
2023-03-01T22:35:10.154Z,-2.10
2023-03-01T22:37:37.045Z,-2.10
2023-03-01T22:40:06.758Z,-2.10
2023-03-01T22:42:33.812Z,-2.10
2023-03-01T22:45:00.751Z,-2.10
2023-03-01T22:47:27.639Z,-2.20
2023-03-01T22:49:55.007Z,-2.20
2023-03-01T22:52:22.296Z,-2.10
2023-03-01T22:54:49.274Z,-2.20
2023-03-01T22:57:16.187Z,-2.20
2023-03-01T22:59:43.117Z,-2.20
2023-03-01T23:02:10.142Z,-2.30
2023-03-01T23:04:37.152Z,-2.30
2023-03-01T23:07:04.044Z,-2.30
2023-03-01T23:09:32.850Z,-2.30
2023-03-01T23:12:00.925Z,-2.30
2023-03-01T23:14:29.862Z,-1.80
2023-03-01T23:16:56.945Z,-2.30
2023-03-01T23:19:24.032Z,-0.80
2023-03-01T23:21:51.082Z,-2.50
2023-03-01T23:24:19.304Z,-2.40
2023-03-01T23:26:50.502Z,-2.40
2023-03-01T23:29:17.508Z,-2.30
2023-03-01T23:31:44.469Z,-1.70
2023-03-01T23:34:11.345Z,-2.50
2023-03-01T23:36:45.209Z,-1.80
2023-03-01T23:39:13.180Z,-2.60
2023-03-01T23:41:40.312Z,-2.30
2023-03-01T23:44:07.492Z,-2.60
2023-03-01T23:46:35.839Z,-2.60
2023-03-01T23:49:03.294Z,-2.70
2023-03-01T23:51:30.267Z,-2.60
2023-03-01T23:54:00.186Z,-2.60
2023-03-01T23:56:28.733Z,-2.60
2023-03-01T23:58:59.699Z,-2.60
